createdAt,value
2022-08-25T00:00:12.181Z,21.20
2022-08-25T00:02:39.047Z,21.10
2022-08-25T00:05:06.591Z,21.10
2022-08-25T00:07:34.251Z,21.10
2022-08-25T00:14:55.385Z,21.10
2022-08-25T00:17:22.079Z,21.00
2022-08-25T00:19:48.832Z,20.90
2022-08-25T00:32:06.818Z,20.80
2022-08-25T00:34:36.859Z,20.80
2022-08-25T00:37:07.302Z,20.80
2022-08-25T00:42:03.115Z,20.70
2022-08-25T00:44:31.720Z,20.60
2022-08-25T00:47:01.240Z,20.50
2022-08-25T00:49:41.809Z,20.60
2022-08-25T00:52:14.078Z,20.60
2022-08-25T00:54:47.361Z,20.50
2022-08-25T00:57:16.917Z,20.50
2022-08-25T01:02:14.560Z,20.40
2022-08-25T01:04:48.974Z,20.50
2022-08-25T01:07:18.966Z,20.40
2022-08-25T01:09:48.155Z,20.30
2022-08-25T01:12:15.653Z,20.40
2022-08-25T01:14:45.941Z,20.30
2022-08-25T01:17:14.143Z,20.20
2022-08-25T01:22:10.527Z,20.20
2022-08-25T01:24:46.967Z,20.20
2022-08-25T01:27:14.406Z,20.20
2022-08-25T01:29:41.461Z,20.20
2022-08-25T01:32:12.134Z,20.10
2022-08-25T01:34:42.615Z,19.90
2022-08-25T01:37:13.434Z,20.10
2022-08-25T01:39:41.684Z,20.10
2022-08-25T01:44:41.420Z,20.00
2022-08-25T01:47:08.554Z,20.00
2022-08-25T01:49:35.683Z,20.00
2022-08-25T01:52:51.058Z,19.90
2022-08-25T01:55:18.157Z,19.80
2022-08-25T01:57:44.888Z,19.90
2022-08-25T02:00:13.946Z,19.90
2022-08-25T02:02:42.510Z,19.90
2022-08-25T02:05:11.899Z,19.90
2022-08-25T02:10:07.679Z,19.80
2022-08-25T02:12:35.980Z,19.80
2022-08-25T02:15:06.180Z,19.70
2022-08-25T02:17:34.216Z,19.70
2022-08-25T02:20:00.905Z,19.70
2022-08-25T02:22:28.776Z,19.70
2022-08-25T02:24:55.526Z,19.70
2022-08-25T02:27:24.142Z,19.70
2022-08-25T02:32:19.147Z,19.60
2022-08-25T02:49:33.067Z,19.60
2022-08-25T02:54:28.656Z,19.40
2022-08-25T02:56:55.336Z,19.50
2022-08-25T03:06:43.979Z,19.50
2022-08-25T03:09:11.807Z,19.50
2022-08-25T03:11:38.499Z,19.40
2022-08-25T03:14:09.614Z,19.50
2022-08-25T03:16:40.103Z,19.40
2022-08-25T03:21:34.254Z,19.30
2022-08-25T03:26:46.722Z,19.20
2022-08-25T03:31:42.983Z,19.30
2022-08-25T03:34:10.006Z,19.30
2022-08-25T03:36:37.100Z,19.30
2022-08-25T03:39:04.203Z,19.10
2022-08-25T03:41:35.024Z,19.20
2022-08-25T03:44:04.027Z,19.10
2022-08-25T03:46:33.822Z,19.20
2022-08-25T03:49:06.431Z,19.10
2022-08-25T03:51:37.147Z,19.00
2022-08-25T03:54:04.853Z,19.10
2022-08-25T03:56:31.618Z,19.10
2022-08-25T03:58:58.484Z,19.10
2022-08-25T04:03:53.091Z,19.00
2022-08-25T04:11:18.682Z,18.90
2022-08-25T04:13:47.589Z,18.90
2022-08-25T04:16:18.514Z,18.90
2022-08-25T04:18:46.088Z,18.70
2022-08-25T04:21:13.544Z,18.70
2022-08-25T04:23:42.507Z,18.70
2022-08-25T04:26:15.162Z,18.60
2022-08-25T04:28:42.205Z,18.60
2022-08-25T04:31:10.825Z,18.60
2022-08-25T04:33:38.631Z,18.50
2022-08-25T04:36:10.148Z,18.60
2022-08-25T04:38:39.650Z,18.60
2022-08-25T04:41:09.171Z,18.60
2022-08-25T04:43:37.247Z,18.50
2022-08-25T04:46:11.137Z,18.60
2022-08-25T04:48:39.896Z,18.50
2022-08-25T04:51:08.674Z,18.60
2022-08-25T04:53:35.642Z,18.60
2022-08-25T04:56:06.542Z,18.60
2022-08-25T04:58:34.073Z,18.60
2022-08-25T05:01:09.229Z,18.70
2022-08-25T05:03:36.946Z,18.70
2022-08-25T05:06:04.722Z,18.70
2022-08-25T05:08:32.983Z,18.70
2022-08-25T05:11:04.669Z,18.70
2022-08-25T05:16:00.705Z,18.80
2022-08-25T05:18:30.253Z,18.70
2022-08-25T05:21:01.425Z,18.90
2022-08-25T05:23:28.153Z,18.90
2022-08-25T05:25:54.989Z,19.00
2022-08-25T05:30:50.133Z,19.10
2022-08-25T05:33:18.290Z,19.20
2022-08-25T05:35:45.103Z,19.30
2022-08-25T05:40:42.534Z,19.40
2022-08-25T05:43:10.163Z,19.50
2022-08-25T05:50:31.521Z,19.60
2022-08-25T05:55:25.525Z,19.80
2022-08-25T05:57:52.425Z,20.00
2022-08-25T06:00:19.372Z,20.00
2022-08-25T06:07:44.447Z,20.30
2022-08-25T06:12:40.866Z,20.40
2022-08-25T06:20:14.495Z,20.90
2022-08-25T06:22:41.550Z,21.10
2022-08-25T06:25:10.108Z,21.10
2022-08-25T06:30:07.615Z,21.40
2022-08-25T06:32:36.501Z,21.50
2022-08-25T06:35:04.645Z,21.60
2022-08-25T06:44:52.955Z,22.30
2022-08-25T06:49:46.987Z,22.60
2022-08-25T06:54:41.542Z,22.70
2022-08-25T07:06:59.117Z,23.30
2022-08-25T07:11:53.914Z,23.60
2022-08-25T07:14:22.108Z,23.60
2022-08-25T07:16:50.401Z,23.80
2022-08-25T07:19:20.567Z,23.80
2022-08-25T07:21:51.973Z,24.00
2022-08-25T07:24:18.973Z,24.10
2022-08-25T07:26:46.749Z,24.20
2022-08-25T07:29:31.893Z,26.60
2022-08-25T07:32:01.482Z,24.40
2022-08-25T07:42:36.030Z,24.90
2022-08-25T07:45:06.101Z,25.00
2022-08-25T07:50:01.807Z,25.20
2022-08-25T07:52:28.569Z,25.30
2022-08-25T07:54:55.321Z,25.40
2022-08-25T07:57:23.934Z,25.40
2022-08-25T07:59:50.909Z,25.50
2022-08-25T08:02:19.491Z,25.60
2022-08-25T08:04:51.714Z,25.70
2022-08-25T08:07:20.558Z,25.70
2022-08-25T08:09:56.187Z,25.80
2022-08-25T08:12:33.993Z,25.90
2022-08-25T08:15:01.301Z,26.00
2022-08-25T08:17:28.105Z,26.10
2022-08-25T08:19:55.137Z,26.20
2022-08-25T08:22:21.850Z,26.30
2022-08-25T08:27:21.359Z,26.50
2022-08-25T08:29:49.282Z,26.50
2022-08-25T08:37:18.798Z,26.70
2022-08-25T08:39:49.622Z,26.80
2022-08-25T08:42:22.259Z,26.80
2022-08-25T08:44:57.000Z,26.90
2022-08-25T08:47:37.842Z,26.90
2022-08-25T08:55:05.557Z,27.00
2022-08-25T08:57:40.110Z,27.10
2022-08-25T09:00:08.453Z,27.20
2022-08-25T09:02:51.939Z,27.20
2022-08-25T09:05:22.698Z,27.30
2022-08-25T09:07:56.601Z,27.30
2022-08-25T09:10:26.160Z,27.40
2022-08-25T09:13:26.123Z,27.50
2022-08-25T09:16:23.445Z,27.60
2022-08-25T09:19:08.627Z,27.70
2022-08-25T09:22:02.828Z,27.80
2022-08-25T09:24:57.149Z,27.80
2022-08-25T09:28:02.183Z,28.00
2022-08-25T09:30:45.692Z,28.10
2022-08-25T09:33:21.108Z,28.20
2022-08-25T09:35:50.499Z,28.20
2022-08-25T09:40:51.319Z,28.30
2022-08-25T09:43:23.340Z,28.30
2022-08-25T09:46:08.740Z,28.40
2022-08-25T09:48:56.402Z,28.50
2022-08-25T09:51:42.490Z,28.60
2022-08-25T09:54:13.090Z,28.70
2022-08-25T09:56:54.784Z,28.80
2022-08-25T09:59:36.909Z,28.90
2022-08-25T10:02:22.182Z,29.00
2022-08-25T10:04:48.972Z,29.00
2022-08-25T10:07:48.127Z,29.00
2022-08-25T10:10:27.403Z,29.10
2022-08-25T10:13:00.938Z,29.10
2022-08-25T10:15:33.039Z,29.10
2022-08-25T10:18:26.695Z,29.20
2022-08-25T10:21:18.935Z,29.20
2022-08-25T10:23:51.546Z,29.20
2022-08-25T10:26:45.178Z,29.20
2022-08-25T10:29:32.601Z,29.20
2022-08-25T10:32:14.711Z,29.40
2022-08-25T10:34:55.365Z,29.50
2022-08-25T10:39:58.280Z,29.50
2022-08-25T10:42:51.487Z,29.60
2022-08-25T10:45:41.240Z,29.60
2022-08-25T10:50:56.443Z,29.60
2022-08-25T10:53:37.473Z,29.60
2022-08-25T10:56:07.202Z,29.60
2022-08-25T10:58:59.868Z,29.60
2022-08-25T11:01:43.459Z,29.60
2022-08-25T11:04:27.564Z,29.70
2022-08-25T11:07:25.018Z,29.70
2022-08-25T11:09:57.727Z,29.80
2022-08-25T11:12:36.050Z,29.80
2022-08-25T11:15:09.963Z,29.80
2022-08-25T11:17:56.613Z,29.90
2022-08-25T11:20:41.863Z,29.90
2022-08-25T11:23:28.447Z,30.00
2022-08-25T11:26:04.282Z,30.10
2022-08-25T11:28:35.527Z,30.10
2022-08-25T11:31:03.995Z,30.10
2022-08-25T11:33:33.637Z,30.10
2022-08-25T11:36:12.811Z,30.20
2022-08-25T11:38:58.663Z,30.30
2022-08-25T11:41:32.310Z,30.40
2022-08-25T11:44:19.071Z,30.40
2022-08-25T11:47:13.133Z,30.30
2022-08-25T11:49:52.743Z,30.10
2022-08-25T11:52:34.694Z,30.10
2022-08-25T11:55:22.849Z,30.30
2022-08-25T11:57:53.527Z,30.40
2022-08-25T12:00:39.797Z,30.50
2022-08-25T12:03:32.734Z,30.40
2022-08-25T12:06:23.372Z,30.50
2022-08-25T12:11:41.733Z,30.50
2022-08-25T12:14:16.362Z,30.50
2022-08-25T12:17:05.209Z,30.50
2022-08-25T12:19:34.942Z,30.50
2022-08-25T12:24:47.897Z,30.60
2022-08-25T12:27:44.168Z,30.70
2022-08-25T12:30:21.441Z,30.80
2022-08-25T12:33:07.054Z,30.90
2022-08-25T12:38:32.054Z,31.00
2022-08-25T12:41:33.687Z,31.00
2022-08-25T12:44:39.609Z,30.80
2022-08-25T12:47:27.182Z,30.70
2022-08-25T12:50:28.972Z,30.80
2022-08-25T12:53:02.613Z,30.70
2022-08-25T12:57:58.831Z,30.90
2022-08-25T13:00:29.976Z,31.00
2022-08-25T13:03:34.453Z,31.10
2022-08-25T13:06:22.665Z,30.90
2022-08-25T13:09:20.866Z,31.00
2022-08-25T13:12:22.871Z,31.00
2022-08-25T13:14:54.914Z,31.10
2022-08-25T13:17:34.162Z,31.20
2022-08-25T13:20:18.986Z,31.10
2022-08-25T13:22:56.681Z,31.10
2022-08-25T13:25:32.420Z,31.20
2022-08-25T13:28:05.755Z,31.30
2022-08-25T13:30:37.072Z,31.40
2022-08-25T13:33:22.222Z,31.30
2022-08-25T13:36:11.473Z,31.30
2022-08-25T13:38:39.179Z,31.20
2022-08-25T13:41:09.434Z,31.30
2022-08-25T13:46:05.893Z,31.40
2022-08-25T13:48:49.661Z,31.20
2022-08-25T13:51:31.481Z,31.20
2022-08-25T13:54:06.029Z,31.20
2022-08-25T13:56:41.811Z,31.20
2022-08-25T13:59:25.650Z,31.40
2022-08-25T14:01:54.651Z,31.40
2022-08-25T14:04:24.485Z,31.40
2022-08-25T14:07:12.509Z,31.50
2022-08-25T14:09:45.495Z,31.70
2022-08-25T14:15:03.843Z,31.50
2022-08-25T14:17:39.464Z,31.50
2022-08-25T14:20:17.959Z,31.50
2022-08-25T14:22:44.729Z,31.40
2022-08-25T14:28:05.716Z,30.70
2022-08-25T14:30:31.469Z,31.40
2022-08-25T14:37:53.830Z,31.40
2022-08-25T14:40:20.626Z,31.40
2022-08-25T14:45:19.181Z,31.40
2022-08-25T14:47:49.650Z,31.50
2022-08-25T14:50:17.454Z,31.50
2022-08-25T14:52:47.909Z,31.50
2022-08-25T14:55:31.285Z,31.50
2022-08-25T14:57:58.707Z,31.40
2022-08-25T15:02:53.553Z,31.40
2022-08-25T15:05:28.377Z,31.40
2022-08-25T15:08:14.463Z,31.40
2022-08-25T15:10:43.492Z,31.40
2022-08-25T15:13:10.811Z,31.40
2022-08-25T15:15:39.886Z,31.40
2022-08-25T15:25:47.268Z,31.40
2022-08-25T15:28:17.117Z,31.30
2022-08-25T15:33:13.866Z,31.40
2022-08-25T15:35:41.009Z,31.50
2022-08-25T15:38:08.225Z,31.50
2022-08-25T15:43:05.209Z,31.40
2022-08-25T15:45:32.780Z,31.20
2022-08-25T15:47:59.632Z,31.10
2022-08-25T15:50:26.841Z,31.00
2022-08-25T15:55:21.250Z,31.00
2022-08-25T15:57:49.606Z,31.00
2022-08-25T16:00:18.191Z,31.00
2022-08-25T16:02:46.233Z,31.00
2022-08-25T16:05:16.227Z,31.00
2022-08-25T16:07:46.031Z,31.00
2022-08-25T16:10:13.537Z,31.00
2022-08-25T16:15:12.065Z,31.00
2022-08-25T16:17:40.790Z,31.00
2022-08-25T16:20:13.640Z,30.90
2022-08-25T16:25:08.711Z,30.80
2022-08-25T16:27:38.786Z,30.60
2022-08-25T16:30:07.994Z,30.60
2022-08-25T16:32:35.595Z,30.50
2022-08-25T16:39:57.523Z,30.40
2022-08-25T16:44:53.959Z,30.50
2022-08-25T16:47:25.113Z,30.40
2022-08-25T16:52:40.705Z,30.40
2022-08-25T16:57:49.544Z,30.30
2022-08-25T17:00:23.209Z,30.20
2022-08-25T17:02:54.153Z,30.10
2022-08-25T17:08:08.424Z,29.90
2022-08-25T17:10:40.887Z,29.90
2022-08-25T17:13:09.070Z,29.80
2022-08-25T17:15:40.799Z,29.70
2022-08-25T17:20:38.295Z,29.60
2022-08-25T17:25:43.023Z,29.50
2022-08-25T17:30:39.637Z,29.50
2022-08-25T17:33:06.808Z,29.40
2022-08-25T17:35:39.894Z,29.20
2022-08-25T17:40:35.849Z,29.00
2022-08-25T17:43:02.693Z,28.90
2022-08-25T17:45:29.948Z,28.80
2022-08-25T17:50:26.627Z,28.60
2022-08-25T17:52:53.592Z,28.40
2022-08-25T17:55:24.220Z,28.30
2022-08-25T17:57:51.460Z,28.10
2022-08-25T18:00:20.278Z,28.00
2022-08-25T18:02:48.414Z,27.90
2022-08-25T18:05:17.347Z,27.70
2022-08-25T18:07:44.112Z,27.60
2022-08-25T18:10:11.677Z,27.40
2022-08-25T18:12:38.828Z,27.40
2022-08-25T18:15:06.848Z,27.20
2022-08-25T18:17:36.526Z,27.10
2022-08-25T18:20:10.060Z,26.90
2022-08-25T18:22:38.558Z,26.80
2022-08-25T18:25:06.943Z,26.60
2022-08-25T18:27:34.614Z,26.50
2022-08-25T18:30:01.987Z,26.40
2022-08-25T18:32:29.299Z,26.30
2022-08-25T18:34:56.577Z,26.10
2022-08-25T18:37:42.572Z,26.10
2022-08-25T18:40:25.513Z,25.90
2022-08-25T18:42:57.741Z,25.80
2022-08-25T18:45:31.868Z,25.70
2022-08-25T18:47:59.887Z,25.60
2022-08-25T18:50:30.447Z,25.50
2022-08-25T18:55:24.933Z,25.40
2022-08-25T18:57:51.818Z,25.30
2022-08-25T19:00:21.108Z,25.20
2022-08-25T19:02:49.806Z,25.10
2022-08-25T19:05:22.855Z,25.10
2022-08-25T19:10:20.550Z,24.90
2022-08-25T19:12:51.089Z,24.80
2022-08-25T19:17:53.104Z,24.70
2022-08-25T19:20:21.671Z,24.60
2022-08-25T19:22:49.233Z,24.60
2022-08-25T19:25:17.080Z,24.50
2022-08-25T19:30:14.015Z,24.40
2022-08-25T19:32:42.763Z,24.30
2022-08-25T19:35:18.537Z,24.30
2022-08-25T19:37:45.509Z,24.30
2022-08-25T19:45:11.151Z,24.10
2022-08-25T19:47:38.423Z,24.10
2022-08-25T19:50:06.811Z,24.00
2022-08-25T19:52:34.329Z,24.00
2022-08-25T19:55:02.802Z,23.90
2022-08-25T19:57:42.640Z,23.90
2022-08-25T20:00:21.782Z,23.80
2022-08-25T20:02:48.821Z,23.80
2022-08-25T20:05:16.899Z,23.70
2022-08-25T20:07:53.132Z,23.70
2022-08-25T20:10:21.012Z,23.60
2022-08-25T20:12:47.958Z,23.60
2022-08-25T20:15:16.650Z,23.50
2022-08-25T20:17:45.002Z,23.50
2022-08-25T20:20:15.678Z,23.50
2022-08-25T20:22:42.537Z,23.50
2022-08-25T20:25:13.982Z,23.40
2022-08-25T20:27:45.017Z,23.40
2022-08-25T20:30:18.977Z,23.30
2022-08-25T20:32:46.196Z,23.30
2022-08-25T20:35:14.472Z,23.30
2022-08-25T20:37:43.919Z,23.20
2022-08-25T20:40:13.561Z,23.20
2022-08-25T20:42:40.681Z,23.10
2022-08-25T20:45:10.534Z,23.10
2022-08-25T20:47:37.332Z,23.10
2022-08-25T20:50:06.941Z,23.10
2022-08-25T20:55:01.752Z,23.00
2022-08-25T20:57:28.680Z,23.00
2022-08-25T21:02:23.947Z,23.00
2022-08-25T21:04:51.505Z,22.90
2022-08-25T21:07:19.713Z,22.90
2022-08-25T21:09:47.784Z,22.80
2022-08-25T21:12:15.184Z,22.80
2022-08-25T21:14:42.229Z,22.80
2022-08-25T21:17:12.750Z,22.70
2022-08-25T21:19:39.940Z,22.70
2022-08-25T21:22:07.460Z,22.60
2022-08-25T21:24:35.011Z,22.60
2022-08-25T21:27:03.665Z,22.60
2022-08-25T21:31:59.617Z,22.50
2022-08-25T21:34:28.245Z,22.50
2022-08-25T21:36:57.977Z,22.40
2022-08-25T21:39:27.453Z,22.40
2022-08-25T21:41:56.402Z,22.40
2022-08-25T21:44:23.468Z,22.30
2022-08-25T21:46:54.427Z,22.30
2022-08-25T21:52:02.374Z,22.30
2022-08-25T21:54:31.808Z,22.30
2022-08-25T21:57:02.553Z,22.20
2022-08-25T21:59:32.883Z,22.20
2022-08-25T22:02:05.455Z,22.20
2022-08-25T22:04:33.113Z,22.20
2022-08-25T22:07:00.461Z,22.20
2022-08-25T22:09:28.518Z,22.10
2022-08-25T22:11:56.138Z,22.10
2022-08-25T22:14:26.190Z,22.00
2022-08-25T22:16:53.695Z,22.00
2022-08-25T22:19:21.487Z,22.00
2022-08-25T22:21:50.238Z,22.00
2022-08-25T22:24:17.975Z,22.00
2022-08-25T22:26:47.527Z,22.00
2022-08-25T22:29:23.257Z,22.00
2022-08-25T22:31:59.344Z,21.90
2022-08-25T22:34:33.259Z,21.90
2022-08-25T22:37:01.221Z,22.00
2022-08-25T22:39:29.091Z,22.00
2022-08-25T22:44:23.494Z,21.90
2022-08-25T22:51:44.846Z,21.90
2022-08-25T22:54:15.044Z,21.90
2022-08-25T22:56:42.335Z,21.90
2022-08-25T22:59:12.473Z,21.80
2022-08-25T23:01:40.224Z,21.80
2022-08-25T23:04:08.053Z,21.80
2022-08-25T23:06:35.364Z,21.80
2022-08-25T23:09:04.945Z,21.90
2022-08-25T23:11:31.663Z,21.80
2022-08-25T23:14:05.623Z,21.70
2022-08-25T23:16:33.086Z,21.80
2022-08-25T23:19:00.316Z,21.70
2022-08-25T23:24:29.342Z,21.80
2022-08-25T23:27:01.936Z,21.80
2022-08-25T23:29:29.934Z,21.80
2022-08-25T23:31:58.318Z,21.70
2022-08-25T23:34:26.253Z,21.70
2022-08-25T23:36:53.256Z,21.80
2022-08-25T23:41:49.274Z,22.00
2022-08-25T23:44:17.161Z,22.00
2022-08-25T23:51:46.332Z,22.10
2022-08-25T23:54:14.676Z,22.10
2022-08-25T23:56:51.941Z,22.10
